sensor_id;sensor_type;location;lat;lon;timestamp;temperature;humidity
50907;DHT22;36882;27.680;85.304;2023-07-20T00:00:50;23.40;99.90
50907;DHT22;36882;27.680;85.304;2023-07-20T00:03:22;23.40;99.90
50907;DHT22;36882;27.680;85.304;2023-07-20T00:59:09;25.00;99.90
50907;DHT22;36882;27.680;85.304;2023-07-20T01:01:40;25.20;99.90
50907;DHT22;36882;27.680;85.304;2023-07-20T01:04:10;25.60;99.90
50907;DHT22;36882;27.680;85.304;2023-07-20T01:09:59;25.70;99.90
50907;DHT22;36882;27.680;85.304;2023-07-20T01:12:44;26.40;99.90
50907;DHT22;36882;27.680;85.304;2023-07-20T01:15:15;26.60;99.90
50907;DHT22;36882;27.680;85.304;2023-07-20T01:17:45;26.80;99.90
50907;DHT22;36882;27.680;85.304;2023-07-20T01:20:18;26.90;99.90
50907;DHT22;36882;27.680;85.304;2023-07-20T01:29:50;26.70;99.90
50907;DHT22;36882;27.680;85.304;2023-07-20T02:48:08;28.80;99.90
50907;DHT22;36882;27.680;85.304;2023-07-20T02:50:38;28.70;99.90
50907;DHT22;36882;27.680;85.304;2023-07-20T02:53:08;28.50;99.90
50907;DHT22;36882;27.680;85.304;2023-07-20T02:55:38;28.60;99.90
50907;DHT22;36882;27.680;85.304;2023-07-20T02:58:08;29.10;99.90
50907;DHT22;36882;27.680;85.304;2023-07-20T03:00:37;28.90;99.90
50907;DHT22;36882;27.680;85.304;2023-07-20T03:03:07;29.10;99.90
50907;DHT22;36882;27.680;85.304;2023-07-20T03:05:41;29.20;99.90
50907;DHT22;36882;27.680;85.304;2023-07-20T03:08:11;29.00;99.90
50907;DHT22;36882;27.680;85.304;2023-07-20T03:10:41;29.40;99.90
50907;DHT22;36882;27.680;85.304;2023-07-20T03:13:11;29.50;99.90
50907;DHT22;36882;27.680;85.304;2023-07-20T03:15:43;29.60;99.90
50907;DHT22;36882;27.680;85.304;2023-07-20T03:18:15;29.50;99.90
50907;DHT22;36882;27.680;85.304;2023-07-20T03:20:45;29.10;99.90
50907;DHT22;36882;27.680;85.304;2023-07-20T03:23:15;29.20;99.90
50907;DHT22;36882;27.680;85.304;2023-07-20T03:25:46;29.10;99.90
50907;DHT22;36882;27.680;85.304;2023-07-20T03:28:15;29.00;99.90
50907;DHT22;36882;27.680;85.304;2023-07-20T03:30:45;28.80;99.90
50907;DHT22;36882;27.680;85.304;2023-07-20T03:33:16;28.60;99.90
50907;DHT22;36882;27.680;85.304;2023-07-20T03:35:46;28.40;99.90
50907;DHT22;36882;27.680;85.304;2023-07-20T03:38:22;28.90;99.90
50907;DHT22;36882;27.680;85.304;2023-07-20T03:42:11;29.00;99.90
50907;DHT22;36882;27.680;85.304;2023-07-20T03:44:42;29.20;99.90
50907;DHT22;36882;27.680;85.304;2023-07-20T03:47:12;29.40;99.90
50907;DHT22;36882;27.680;85.304;2023-07-20T03:49:42;29.70;99.90
50907;DHT22;36882;27.680;85.304;2023-07-20T03:52:12;29.70;99.90
50907;DHT22;36882;27.680;85.304;2023-07-20T03:54:42;30.00;99.90
50907;DHT22;36882;27.680;85.304;2023-07-20T03:57:13;30.00;99.90
50907;DHT22;36882;27.680;85.304;2023-07-20T03:59:46;30.00;99.90
50907;DHT22;36882;27.680;85.304;2023-07-20T04:02:16;29.70;99.90
50907;DHT22;36882;27.680;85.304;2023-07-20T04:04:45;29.60;99.90
50907;DHT22;36882;27.680;85.304;2023-07-20T04:07:15;29.30;99.90
50907;DHT22;36882;27.680;85.304;2023-07-20T04:09:45;29.10;99.90
50907;DHT22;36882;27.680;85.304;2023-07-20T04:12:15;29.10;99.90
50907;DHT22;36882;27.680;85.304;2023-07-20T04:14:46;29.10;99.90
50907;DHT22;36882;27.680;85.304;2023-07-20T04:17:16;29.30;99.90
50907;DHT22;36882;27.680;85.304;2023-07-20T04:19:46;29.30;99.90
50907;DHT22;36882;27.680;85.304;2023-07-20T04:22:16;29.50;99.90
50907;DHT22;36882;27.680;85.304;2023-07-20T04:24:46;29.70;99.90
50907;DHT22;36882;27.680;85.304;2023-07-20T04:27:16;29.70;99.90
50907;DHT22;36882;27.680;85.304;2023-07-20T04:29:46;29.70;99.90
50907;DHT22;36882;27.680;85.304;2023-07-20T04:32:16;29.70;99.90
50907;DHT22;36882;27.680;85.304;2023-07-20T04:34:45;29.70;99.90
50907;DHT22;36882;27.680;85.304;2023-07-20T04:37:15;29.60;99.90
50907;DHT22;36882;27.680;85.304;2023-07-20T04:39:45;29.50;99.90
50907;DHT22;36882;27.680;85.304;2023-07-20T04:42:15;29.50;99.90
50907;DHT22;36882;27.680;85.304;2023-07-20T04:44:47;29.50;99.90
50907;DHT22;36882;27.680;85.304;2023-07-20T04:47:19;29.60;99.90
50907;DHT22;36882;27.680;85.304;2023-07-20T04:49:49;29.60;99.90
50907;DHT22;36882;27.680;85.304;2023-07-20T04:52:19;29.90;99.90
50907;DHT22;36882;27.680;85.304;2023-07-20T04:55:07;30.20;99.90
50907;DHT22;36882;27.680;85.304;2023-07-20T04:57:41;30.20;99.90
50907;DHT22;36882;27.680;85.304;2023-07-20T05:00:11;29.90;99.90
50907;DHT22;36882;27.680;85.304;2023-07-20T05:02:42;30.00;99.90
50907;DHT22;36882;27.680;85.304;2023-07-20T05:05:13;30.10;99.90
50907;DHT22;36882;27.680;85.304;2023-07-20T05:07:43;29.90;99.90
50907;DHT22;36882;27.680;85.304;2023-07-20T05:10:14;30.10;99.90
50907;DHT22;36882;27.680;85.304;2023-07-20T05:12:48;30.20;99.90
50907;DHT22;36882;27.680;85.304;2023-07-20T05:15:19;30.20;99.90
50907;DHT22;36882;27.680;85.304;2023-07-20T05:17:49;30.10;99.90
50907;DHT22;36882;27.680;85.304;2023-07-20T05:20:19;30.20;99.90
50907;DHT22;36882;27.680;85.304;2023-07-20T05:22:53;30.30;99.90
50907;DHT22;36882;27.680;85.304;2023-07-20T05:25:23;30.20;99.90
50907;DHT22;36882;27.680;85.304;2023-07-20T05:27:55;30.20;99.90
50907;DHT22;36882;27.680;85.304;2023-07-20T05:30:29;30.10;99.90
50907;DHT22;36882;27.680;85.304;2023-07-20T05:33:11;30.30;99.90
50907;DHT22;36882;27.680;85.304;2023-07-20T05:35:41;30.30;99.90
50907;DHT22;36882;27.680;85.304;2023-07-20T05:38:11;30.10;99.90
50907;DHT22;36882;27.680;85.304;2023-07-20T05:40:44;30.00;99.90
50907;DHT22;36882;27.680;85.304;2023-07-20T05:43:15;29.80;99.90
50907;DHT22;36882;27.680;85.304;2023-07-20T05:45:51;29.90;99.90
50907;DHT22;36882;27.680;85.304;2023-07-20T05:48:24;29.90;99.90
50907;DHT22;36882;27.680;85.304;2023-07-20T05:50:54;29.90;99.90
50907;DHT22;36882;27.680;85.304;2023-07-20T05:53:24;29.80;99.90
50907;DHT22;36882;27.680;85.304;2023-07-20T05:55:54;29.90;99.90
50907;DHT22;36882;27.680;85.304;2023-07-20T05:58:24;29.90;99.90
50907;DHT22;36882;27.680;85.304;2023-07-20T06:00:54;30.00;99.90
50907;DHT22;36882;27.680;85.304;2023-07-20T06:03:24;30.00;99.90
50907;DHT22;36882;27.680;85.304;2023-07-20T06:06:01;30.00;99.90
50907;DHT22;36882;27.680;85.304;2023-07-20T06:08:32;29.90;99.90
50907;DHT22;36882;27.680;85.304;2023-07-20T06:11:02;29.90;99.90
50907;DHT22;36882;27.680;85.304;2023-07-20T06:13:34;29.90;99.90
50907;DHT22;36882;27.680;85.304;2023-07-20T06:16:04;30.00;99.90
50907;DHT22;36882;27.680;85.304;2023-07-20T06:18:34;30.00;99.90
50907;DHT22;36882;27.680;85.304;2023-07-20T06:21:04;29.90;99.90
50907;DHT22;36882;27.680;85.304;2023-07-20T06:23:34;30.00;99.90
50907;DHT22;36882;27.680;85.304;2023-07-20T06:26:05;30.10;99.70
50907;DHT22;36882;27.680;85.304;2023-07-20T06:28:36;30.00;99.90
50907;DHT22;36882;27.680;85.304;2023-07-20T06:31:06;30.00;99.90
50907;DHT22;36882;27.680;85.304;2023-07-20T06:33:36;30.00;99.90
50907;DHT22;36882;27.680;85.304;2023-07-20T06:36:06;30.30;99.90
50907;DHT22;36882;27.680;85.304;2023-07-20T06:38:36;30.40;99.90
50907;DHT22;36882;27.680;85.304;2023-07-20T06:41:06;30.30;99.90
50907;DHT22;36882;27.680;85.304;2023-07-20T06:43:39;30.30;99.90
50907;DHT22;36882;27.680;85.304;2023-07-20T06:46:11;30.30;99.90
50907;DHT22;36882;27.680;85.304;2023-07-20T06:48:41;30.40;99.90
50907;DHT22;36882;27.680;85.304;2023-07-20T06:51:14;30.30;99.90
50907;DHT22;36882;27.680;85.304;2023-07-20T06:53:43;30.60;99.90
50907;DHT22;36882;27.680;85.304;2023-07-20T06:56:15;30.50;99.90
50907;DHT22;36882;27.680;85.304;2023-07-20T06:58:46;30.60;99.90
50907;DHT22;36882;27.680;85.304;2023-07-20T07:01:16;30.60;99.90
50907;DHT22;36882;27.680;85.304;2023-07-20T07:03:46;30.50;99.90
50907;DHT22;36882;27.680;85.304;2023-07-20T07:06:20;30.40;99.90
50907;DHT22;36882;27.680;85.304;2023-07-20T07:08:53;30.40;99.90
50907;DHT22;36882;27.680;85.304;2023-07-20T07:11:23;30.40;99.90
50907;DHT22;36882;27.680;85.304;2023-07-20T07:13:52;30.40;99.90
50907;DHT22;36882;27.680;85.304;2023-07-20T07:16:24;30.70;99.90
50907;DHT22;36882;27.680;85.304;2023-07-20T07:18:54;30.60;99.90
50907;DHT22;36882;27.680;85.304;2023-07-20T07:21:29;30.60;99.90
50907;DHT22;36882;27.680;85.304;2023-07-20T07:23:59;30.70;99.90
50907;DHT22;36882;27.680;85.304;2023-07-20T07:26:32;30.80;99.90
50907;DHT22;36882;27.680;85.304;2023-07-20T07:29:02;30.80;99.90
50907;DHT22;36882;27.680;85.304;2023-07-20T07:31:34;30.70;99.90
50907;DHT22;36882;27.680;85.304;2023-07-20T07:34:07;30.70;99.90
50907;DHT22;36882;27.680;85.304;2023-07-20T07:36:40;30.60;99.90
50907;DHT22;36882;27.680;85.304;2023-07-20T07:39:10;30.50;99.90
50907;DHT22;36882;27.680;85.304;2023-07-20T07:41:43;30.40;99.90
50907;DHT22;36882;27.680;85.304;2023-07-20T07:44:13;30.10;99.90
50907;DHT22;36882;27.680;85.304;2023-07-20T07:46:43;30.20;99.90
50907;DHT22;36882;27.680;85.304;2023-07-20T07:49:16;29.90;99.90
50907;DHT22;36882;27.680;85.304;2023-07-20T07:51:53;29.80;99.90
50907;DHT22;36882;27.680;85.304;2023-07-20T07:54:24;29.70;99.90
50907;DHT22;36882;27.680;85.304;2023-07-20T07:56:53;29.60;99.90
50907;DHT22;36882;27.680;85.304;2023-07-20T07:59:23;29.60;99.90
50907;DHT22;36882;27.680;85.304;2023-07-20T08:01:53;29.60;99.90
50907;DHT22;36882;27.680;85.304;2023-07-20T08:04:23;29.50;99.90
50907;DHT22;36882;27.680;85.304;2023-07-20T08:06:53;29.40;99.90
50907;DHT22;36882;27.680;85.304;2023-07-20T08:09:23;29.30;99.90
50907;DHT22;36882;27.680;85.304;2023-07-20T08:11:53;29.20;99.90
50907;DHT22;36882;27.680;85.304;2023-07-20T08:14:23;29.20;99.90
50907;DHT22;36882;27.680;85.304;2023-07-20T08:16:53;29.10;99.90
50907;DHT22;36882;27.680;85.304;2023-07-20T08:19:23;29.00;99.90
50907;DHT22;36882;27.680;85.304;2023-07-20T08:21:53;29.00;99.90
50907;DHT22;36882;27.680;85.304;2023-07-20T08:24:23;29.00;99.90
50907;DHT22;36882;27.680;85.304;2023-07-20T08:26:53;29.00;99.90
50907;DHT22;36882;27.680;85.304;2023-07-20T08:29:24;29.00;99.90
50907;DHT22;36882;27.680;85.304;2023-07-20T08:31:54;28.90;99.90
50907;DHT22;36882;27.680;85.304;2023-07-20T08:34:24;28.80;99.90
50907;DHT22;36882;27.680;85.304;2023-07-20T08:36:59;28.50;99.90
50907;DHT22;36882;27.680;85.304;2023-07-20T08:39:29;28.30;99.90
50907;DHT22;36882;27.680;85.304;2023-07-20T08:42:00;28.00;99.90
50907;DHT22;36882;27.680;85.304;2023-07-20T08:44:38;27.60;99.90
50907;DHT22;36882;27.680;85.304;2023-07-20T08:47:09;27.50;99.90
50907;DHT22;36882;27.680;85.304;2023-07-20T08:49:40;27.40;99.90
50907;DHT22;36882;27.680;85.304;2023-07-20T08:52:11;27.30;99.90
50907;DHT22;36882;27.680;85.304;2023-07-20T08:54:41;27.20;99.90
50907;DHT22;36882;27.680;85.304;2023-07-20T08:57:13;26.80;99.90
50907;DHT22;36882;27.680;85.304;2023-07-20T08:59:44;26.80;99.90
50907;DHT22;36882;27.680;85.304;2023-07-20T09:02:16;26.90;99.90
50907;DHT22;36882;27.680;85.304;2023-07-20T09:04:47;26.80;99.90
50907;DHT22;36882;27.680;85.304;2023-07-20T09:07:18;26.60;99.90
50907;DHT22;36882;27.680;85.304;2023-07-20T09:09:49;26.60;99.90
50907;DHT22;36882;27.680;85.304;2023-07-20T09:12:19;26.80;99.90
50907;DHT22;36882;27.680;85.304;2023-07-20T09:14:49;26.80;99.90
50907;DHT22;36882;27.680;85.304;2023-07-20T09:17:19;26.60;99.90
50907;DHT22;36882;27.680;85.304;2023-07-20T09:19:49;26.60;99.90
50907;DHT22;36882;27.680;85.304;2023-07-20T09:22:19;26.60;99.90
50907;DHT22;36882;27.680;85.304;2023-07-20T09:24:56;26.60;99.90
50907;DHT22;36882;27.680;85.304;2023-07-20T09:27:36;26.20;99.90
50907;DHT22;36882;27.680;85.304;2023-07-20T09:30:07;26.00;99.90
50907;DHT22;36882;27.680;85.304;2023-07-20T09:32:48;26.00;99.90
50907;DHT22;36882;27.680;85.304;2023-07-20T09:35:22;26.10;99.90
50907;DHT22;36882;27.680;85.304;2023-07-20T09:37:58;26.00;99.90
50907;DHT22;36882;27.680;85.304;2023-07-20T09:40:38;26.10;99.90
50907;DHT22;36882;27.680;85.304;2023-07-20T09:43:16;26.10;99.90
50907;DHT22;36882;27.680;85.304;2023-07-20T09:45:49;26.30;99.90
50907;DHT22;36882;27.680;85.304;2023-07-20T09:48:24;26.10;99.90
50907;DHT22;36882;27.680;85.304;2023-07-20T09:50:58;26.30;99.90
50907;DHT22;36882;27.680;85.304;2023-07-20T09:53:33;26.30;99.90
50907;DHT22;36882;27.680;85.304;2023-07-20T09:56:03;26.40;99.90
50907;DHT22;36882;27.680;85.304;2023-07-20T09:58:33;26.50;99.90
50907;DHT22;36882;27.680;85.304;2023-07-20T10:01:07;26.40;99.90
50907;DHT22;36882;27.680;85.304;2023-07-20T10:03:38;26.40;99.90
50907;DHT22;36882;27.680;85.304;2023-07-20T10:06:11;26.50;99.90
50907;DHT22;36882;27.680;85.304;2023-07-20T10:08:43;26.60;99.90
50907;DHT22;36882;27.680;85.304;2023-07-20T10:11:19;26.70;99.90
50907;DHT22;36882;27.680;85.304;2023-07-20T10:13:53;26.70;99.90
50907;DHT22;36882;27.680;85.304;2023-07-20T10:16:35;26.60;99.90
50907;DHT22;36882;27.680;85.304;2023-07-20T10:22:17;26.70;99.90
50907;DHT22;36882;27.680;85.304;2023-07-20T10:24:49;26.70;99.90
50907;DHT22;36882;27.680;85.304;2023-07-20T10:27:24;26.60;99.90
50907;DHT22;36882;27.680;85.304;2023-07-20T10:29:54;26.50;99.90
50907;DHT22;36882;27.680;85.304;2023-07-20T10:32:25;26.40;99.90
50907;DHT22;36882;27.680;85.304;2023-07-20T10:34:56;26.50;99.90
50907;DHT22;36882;27.680;85.304;2023-07-20T10:37:54;26.60;99.90
50907;DHT22;36882;27.680;85.304;2023-07-20T10:40:29;26.60;99.90
50907;DHT22;36882;27.680;85.304;2023-07-20T10:43:04;26.70;99.90
50907;DHT22;36882;27.680;85.304;2023-07-20T10:45:47;26.50;99.90
50907;DHT22;36882;27.680;85.304;2023-07-20T10:48:19;26.20;99.90
50907;DHT22;36882;27.680;85.304;2023-07-20T10:51:19;26.20;99.90
50907;DHT22;36882;27.680;85.304;2023-07-20T10:53:53;26.40;99.90
50907;DHT22;36882;27.680;85.304;2023-07-20T10:56:28;26.50;99.90
50907;DHT22;36882;27.680;85.304;2023-07-20T10:58:59;26.50;99.90
50907;DHT22;36882;27.680;85.304;2023-07-20T11:01:36;26.40;99.90
50907;DHT22;36882;27.680;85.304;2023-07-20T11:04:08;26.50;99.90
50907;DHT22;36882;27.680;85.304;2023-07-20T11:06:43;26.50;99.90
50907;DHT22;36882;27.680;85.304;2023-07-20T11:09:14;26.50;99.90
50907;DHT22;36882;27.680;85.304;2023-07-20T11:11:48;26.40;99.90
50907;DHT22;36882;27.680;85.304;2023-07-20T11:14:25;26.50;99.90
50907;DHT22;36882;27.680;85.304;2023-07-20T11:17:11;26.60;99.90
50907;DHT22;36882;27.680;85.304;2023-07-20T11:19:42;26.70;99.90
50907;DHT22;36882;27.680;85.304;2023-07-20T11:22:17;26.90;99.90
50907;DHT22;36882;27.680;85.304;2023-07-20T11:24:55;26.90;99.90
50907;DHT22;36882;27.680;85.304;2023-07-20T11:27:26;26.90;99.90
50907;DHT22;36882;27.680;85.304;2023-07-20T11:29:57;27.10;99.90
50907;DHT22;36882;27.680;85.304;2023-07-20T11:32:27;27.10;99.90
50907;DHT22;36882;27.680;85.304;2023-07-20T11:34:57;27.20;99.90
50907;DHT22;36882;27.680;85.304;2023-07-20T11:37:27;27.30;99.90
50907;DHT22;36882;27.680;85.304;2023-07-20T11:39:57;27.30;99.90
50907;DHT22;36882;27.680;85.304;2023-07-20T11:42:27;27.40;99.90
50907;DHT22;36882;27.680;85.304;2023-07-20T11:45:01;27.30;99.90
50907;DHT22;36882;27.680;85.304;2023-07-20T11:47:34;27.40;99.90
50907;DHT22;36882;27.680;85.304;2023-07-20T11:50:05;27.30;99.90
50907;DHT22;36882;27.680;85.304;2023-07-20T11:52:35;27.30;99.90
50907;DHT22;36882;27.680;85.304;2023-07-20T11:55:07;27.40;99.90
50907;DHT22;36882;27.680;85.304;2023-07-20T11:57:37;27.50;99.90
50907;DHT22;36882;27.680;85.304;2023-07-20T12:00:09;27.60;99.90
50907;DHT22;36882;27.680;85.304;2023-07-20T12:02:41;27.40;99.90
50907;DHT22;36882;27.680;85.304;2023-07-20T12:05:12;27.40;99.90
50907;DHT22;36882;27.680;85.304;2023-07-20T12:07:43;27.20;99.90
50907;DHT22;36882;27.680;85.304;2023-07-20T12:10:13;27.10;99.90
50907;DHT22;36882;27.680;85.304;2023-07-20T12:12:44;27.10;99.90
50907;DHT22;36882;27.680;85.304;2023-07-20T12:15:19;27.20;99.90
50907;DHT22;36882;27.680;85.304;2023-07-20T12:17:53;27.00;99.90
50907;DHT22;36882;27.680;85.304;2023-07-20T12:20:32;27.10;99.90
50907;DHT22;36882;27.680;85.304;2023-07-20T12:23:09;27.30;99.90
50907;DHT22;36882;27.680;85.304;2023-07-20T12:25:46;27.30;99.90
50907;DHT22;36882;27.680;85.304;2023-07-20T12:28:20;27.30;99.90
50907;DHT22;36882;27.680;85.304;2023-07-20T12:30:51;27.30;99.90
50907;DHT22;36882;27.680;85.304;2023-07-20T12:33:25;27.30;99.90
50907;DHT22;36882;27.680;85.304;2023-07-20T12:35:55;27.20;99.90
50907;DHT22;36882;27.680;85.304;2023-07-20T12:38:27;27.30;99.90
50907;DHT22;36882;27.680;85.304;2023-07-20T12:40:59;27.20;99.90
50907;DHT22;36882;27.680;85.304;2023-07-20T12:43:30;27.20;99.90
50907;DHT22;36882;27.680;85.304;2023-07-20T12:46:02;27.00;99.90
50907;DHT22;36882;27.680;85.304;2023-07-20T12:48:32;27.00;99.90
50907;DHT22;36882;27.680;85.304;2023-07-20T12:51:03;27.10;99.90
50907;DHT22;36882;27.680;85.304;2023-07-20T12:53:33;27.20;99.90
50907;DHT22;36882;27.680;85.304;2023-07-20T12:56:03;27.10;99.90
50907;DHT22;36882;27.680;85.304;2023-07-20T12:58:36;27.00;99.90
50907;DHT22;36882;27.680;85.304;2023-07-20T13:01:06;27.00;99.90
50907;DHT22;36882;27.680;85.304;2023-07-20T13:03:36;27.00;99.90
50907;DHT22;36882;27.680;85.304;2023-07-20T13:06:26;27.00;99.90
50907;DHT22;36882;27.680;85.304;2023-07-20T13:08:56;26.90;99.90
50907;DHT22;36882;27.680;85.304;2023-07-20T13:11:27;26.90;99.90
50907;DHT22;36882;27.680;85.304;2023-07-20T13:13:57;26.80;99.90
50907;DHT22;36882;27.680;85.304;2023-07-20T13:16:27;26.80;99.90
50907;DHT22;36882;27.680;85.304;2023-07-20T13:18:58;26.80;99.90
50907;DHT22;36882;27.680;85.304;2023-07-20T13:21:28;26.70;99.90
50907;DHT22;36882;27.680;85.304;2023-07-20T13:23:58;26.60;99.90
50907;DHT22;36882;27.680;85.304;2023-07-20T13:26:37;26.60;99.90
50907;DHT22;36882;27.680;85.304;2023-07-20T13:50:03;26.30;99.90
50907;DHT22;36882;27.680;85.304;2023-07-20T13:52:33;26.20;99.90
50907;DHT22;36882;27.680;85.304;2023-07-20T13:55:07;26.20;99.90
50907;DHT22;36882;27.680;85.304;2023-07-20T13:57:37;26.20;99.90
50907;DHT22;36882;27.680;85.304;2023-07-20T14:00:07;26.20;99.90
50907;DHT22;36882;27.680;85.304;2023-07-20T14:02:40;26.20;99.90
50907;DHT22;36882;27.680;85.304;2023-07-20T14:05:12;26.20;99.90
50907;DHT22;36882;27.680;85.304;2023-07-20T14:07:47;26.10;99.90
50907;DHT22;36882;27.680;85.304;2023-07-20T14:10:21;26.20;99.90
50907;DHT22;36882;27.680;85.304;2023-07-20T14:12:55;26.10;99.90
50907;DHT22;36882;27.680;85.304;2023-07-20T14:15:24;26.00;99.90
50907;DHT22;36882;27.680;85.304;2023-07-20T14:17:54;26.00;99.90
50907;DHT22;36882;27.680;85.304;2023-07-20T14:20:24;26.00;99.90
50907;DHT22;36882;27.680;85.304;2023-07-20T14:22:55;26.00;99.90
50907;DHT22;36882;27.680;85.304;2023-07-20T14:25:27;26.00;99.90
50907;DHT22;36882;27.680;85.304;2023-07-20T14:27:57;26.10;99.90
50907;DHT22;36882;27.680;85.304;2023-07-20T14:30:29;26.10;99.90
50907;DHT22;36882;27.680;85.304;2023-07-20T14:33:03;26.00;99.90
50907;DHT22;36882;27.680;85.304;2023-07-20T14:35:36;26.10;99.90
50907;DHT22;36882;27.680;85.304;2023-07-20T14:38:10;25.90;99.90
50907;DHT22;36882;27.680;85.304;2023-07-20T14:40:40;25.90;99.90
50907;DHT22;36882;27.680;85.304;2023-07-20T14:43:10;26.00;99.90
50907;DHT22;36882;27.680;85.304;2023-07-20T14:45:41;26.10;99.90
50907;DHT22;36882;27.680;85.304;2023-07-20T14:48:11;26.00;99.90
50907;DHT22;36882;27.680;85.304;2023-07-20T14:50:41;25.90;99.90
50907;DHT22;36882;27.680;85.304;2023-07-20T14:53:14;25.90;99.90
50907;DHT22;36882;27.680;85.304;2023-07-20T14:55:48;25.90;99.90
50907;DHT22;36882;27.680;85.304;2023-07-20T14:58:18;25.90;99.90
50907;DHT22;36882;27.680;85.304;2023-07-20T15:00:49;25.90;99.90
50907;DHT22;36882;27.680;85.304;2023-07-20T15:03:19;26.00;99.90
50907;DHT22;36882;27.680;85.304;2023-07-20T15:05:49;26.00;99.90
50907;DHT22;36882;27.680;85.304;2023-07-20T15:08:20;26.00;99.90
50907;DHT22;36882;27.680;85.304;2023-07-20T15:10:50;25.90;99.90
50907;DHT22;36882;27.680;85.304;2023-07-20T15:13:20;25.80;99.90
50907;DHT22;36882;27.680;85.304;2023-07-20T15:15:50;25.80;99.90
50907;DHT22;36882;27.680;85.304;2023-07-20T15:18:20;25.90;99.90
50907;DHT22;36882;27.680;85.304;2023-07-20T15:21:08;25.90;99.90
50907;DHT22;36882;27.680;85.304;2023-07-20T15:23:38;25.80;99.90
50907;DHT22;36882;27.680;85.304;2023-07-20T15:26:08;25.80;99.90
50907;DHT22;36882;27.680;85.304;2023-07-20T15:28:38;25.70;99.90
50907;DHT22;36882;27.680;85.304;2023-07-20T15:31:08;25.80;99.90
50907;DHT22;36882;27.680;85.304;2023-07-20T15:33:38;25.80;99.90
50907;DHT22;36882;27.680;85.304;2023-07-20T15:36:09;25.80;99.90
50907;DHT22;36882;27.680;85.304;2023-07-20T15:38:38;25.90;99.90
50907;DHT22;36882;27.680;85.304;2023-07-20T15:41:10;25.90;99.90
50907;DHT22;36882;27.680;85.304;2023-07-20T15:43:42;25.90;99.90
50907;DHT22;36882;27.680;85.304;2023-07-20T15:46:54;25.90;99.90
50907;DHT22;36882;27.680;85.304;2023-07-20T15:49:17;25.90;99.90
50907;DHT22;36882;27.680;85.304;2023-07-20T15:51:48;25.80;99.90
50907;DHT22;36882;27.680;85.304;2023-07-20T15:54:18;25.70;99.90
50907;DHT22;36882;27.680;85.304;2023-07-20T15:56:47;25.70;99.90
50907;DHT22;36882;27.680;85.304;2023-07-20T15:59:17;25.70;99.90
50907;DHT22;36882;27.680;85.304;2023-07-20T16:01:47;25.60;99.90
50907;DHT22;36882;27.680;85.304;2023-07-20T16:04:17;25.60;99.90
50907;DHT22;36882;27.680;85.304;2023-07-20T16:06:46;25.60;99.90
50907;DHT22;36882;27.680;85.304;2023-07-20T16:09:17;25.50;99.90
50907;DHT22;36882;27.680;85.304;2023-07-20T16:11:47;25.50;99.90
50907;DHT22;36882;27.680;85.304;2023-07-20T16:14:18;25.50;99.90
50907;DHT22;36882;27.680;85.304;2023-07-20T16:16:48;25.40;99.90
50907;DHT22;36882;27.680;85.304;2023-07-20T16:19:17;25.40;99.90
50907;DHT22;36882;27.680;85.304;2023-07-20T16:21:47;25.40;99.90
50907;DHT22;36882;27.680;85.304;2023-07-20T16:24:16;25.40;99.90
50907;DHT22;36882;27.680;85.304;2023-07-20T16:26:47;25.30;99.90
50907;DHT22;36882;27.680;85.304;2023-07-20T16:29:18;25.30;99.90
50907;DHT22;36882;27.680;85.304;2023-07-20T16:31:49;25.40;99.90
50907;DHT22;36882;27.680;85.304;2023-07-20T16:34:22;25.30;99.90
50907;DHT22;36882;27.680;85.304;2023-07-20T16:36:51;25.30;99.90
50907;DHT22;36882;27.680;85.304;2023-07-20T16:39:25;25.20;99.90
50907;DHT22;36882;27.680;85.304;2023-07-20T16:41:55;25.20;99.90
50907;DHT22;36882;27.680;85.304;2023-07-20T16:44:28;25.30;99.90
50907;DHT22;36882;27.680;85.304;2023-07-20T16:46:58;25.30;99.90
50907;DHT22;36882;27.680;85.304;2023-07-20T16:49:27;25.30;99.90
50907;DHT22;36882;27.680;85.304;2023-07-20T16:51:59;25.20;99.90
50907;DHT22;36882;27.680;85.304;2023-07-20T16:54:29;25.20;99.90
50907;DHT22;36882;27.680;85.304;2023-07-20T16:56:58;25.30;99.90
50907;DHT22;36882;27.680;85.304;2023-07-20T16:59:28;25.20;99.90
50907;DHT22;36882;27.680;85.304;2023-07-20T17:01:57;25.20;99.90
50907;DHT22;36882;27.680;85.304;2023-07-20T17:04:28;25.30;99.90
50907;DHT22;36882;27.680;85.304;2023-07-20T17:06:58;25.20;99.90
50907;DHT22;36882;27.680;85.304;2023-07-20T17:09:27;25.20;99.90
50907;DHT22;36882;27.680;85.304;2023-07-20T17:11:57;25.30;99.90
50907;DHT22;36882;27.680;85.304;2023-07-20T17:14:27;25.20;99.90
50907;DHT22;36882;27.680;85.304;2023-07-20T17:16:56;25.20;99.90
50907;DHT22;36882;27.680;85.304;2023-07-20T17:19:26;25.20;99.90
50907;DHT22;36882;27.680;85.304;2023-07-20T17:21:59;25.10;99.90
50907;DHT22;36882;27.680;85.304;2023-07-20T17:24:30;25.20;99.90
50907;DHT22;36882;27.680;85.304;2023-07-20T17:27:02;25.10;99.90
50907;DHT22;36882;27.680;85.304;2023-07-20T17:29:35;25.20;99.90
50907;DHT22;36882;27.680;85.304;2023-07-20T17:32:05;25.10;99.90
50907;DHT22;36882;27.680;85.304;2023-07-20T17:34:35;25.10;99.90
50907;DHT22;36882;27.680;85.304;2023-07-20T17:37:06;25.10;99.90
50907;DHT22;36882;27.680;85.304;2023-07-20T17:39:39;25.10;99.90
50907;DHT22;36882;27.680;85.304;2023-07-20T17:42:11;25.10;99.90
50907;DHT22;36882;27.680;85.304;2023-07-20T17:44:44;25.10;99.90
50907;DHT22;36882;27.680;85.304;2023-07-20T17:47:14;25.20;99.90
50907;DHT22;36882;27.680;85.304;2023-07-20T17:49:47;25.20;99.90
50907;DHT22;36882;27.680;85.304;2023-07-20T17:52:17;25.10;99.90
50907;DHT22;36882;27.680;85.304;2023-07-20T17:54:49;25.00;99.90
50907;DHT22;36882;27.680;85.304;2023-07-20T17:57:19;25.10;99.90
50907;DHT22;36882;27.680;85.304;2023-07-20T17:59:49;25.00;99.90
50907;DHT22;36882;27.680;85.304;2023-07-20T18:02:22;25.00;99.90
50907;DHT22;36882;27.680;85.304;2023-07-20T18:04:55;25.00;99.90
50907;DHT22;36882;27.680;85.304;2023-07-20T18:07:24;25.10;99.90
50907;DHT22;36882;27.680;85.304;2023-07-20T18:09:55;25.10;99.90
50907;DHT22;36882;27.680;85.304;2023-07-20T18:12:25;25.10;99.90
50907;DHT22;36882;27.680;85.304;2023-07-20T18:14:54;25.00;99.90
50907;DHT22;36882;27.680;85.304;2023-07-20T18:17:24;25.00;99.90
50907;DHT22;36882;27.680;85.304;2023-07-20T18:19:53;25.10;99.90
50907;DHT22;36882;27.680;85.304;2023-07-20T18:22:24;25.10;99.90
50907;DHT22;36882;27.680;85.304;2023-07-20T18:24:53;25.10;99.90
50907;DHT22;36882;27.680;85.304;2023-07-20T18:27:23;25.10;99.90